Time;durP1;ratioP1;P1;durP2;ratioP2;P2;SDS_P1;SDS_P2;PMS_P1;PMS_P2;Temp;Humidity;BMP_temperature;BMP_pressure;BME280_temperature;BME280_humidity;BME280_pressure;Samples;Min_cycle;Max_cycle;Signal;HPM_P1;HPM_P2
2023/06/26 00:01:57;;;;;;;6.18;2.28;;;;;;;23.35;71.84;99172.06;5096384;28;20051;-80
2023/06/26 00:04:23;;;;;;;5.38;2.47;;;;;;;23.54;72.08;99207.38;5069378;28;20040;-80
2023/06/26 00:06:48;;;;;;;3.45;1.75;;;;;;;23.41;72.24;99210.13;5093439;28;20032;-80
2023/06/26 00:09:14;;;;;;;7.68;2.53;;;;;;;23.39;71.55;99195.09;5093615;28;20054;-80
2023/06/26 00:11:39;;;;;;;4.22;2.15;;;;;;;23.56;71.84;99218.00;5097642;28;20061;-80
2023/06/26 00:14:04;;;;;;;4.50;2.20;;;;;;;23.39;71.68;99190.53;5093952;28;20020;-80
2023/06/26 00:16:30;;;;;;;7.97;3.28;;;;;;;23.26;72.02;99199.66;5091199;28;20028;-80
2023/06/26 00:18:56;;;;;;;2.42;1.40;;;;;;;23.33;71.64;99198.25;5094253;28;20035;-80
2023/06/26 00:21:22;;;;;;;2.17;1.40;;;;;;;23.10;71.62;99170.38;5088353;28;20690;-79
2023/06/26 00:23:47;;;;;;;3.95;2.90;;;;;;;23.30;71.42;99209.22;5092741;28;20031;-80
2023/06/26 00:26:13;;;;;;;4.80;1.88;;;;;;;;;;5087235;28;20043;-80
2023/06/26 00:28:38;;;;;;;3.30;2.45;;;;;;;23.42;71.19;99222.59;5089885;28;20028;-80
2023/06/26 00:31:04;;;;;;;3.40;2.03;;;;;;;23.21;71.00;99197.31;5094707;28;20028;-79
2023/06/26 00:33:29;;;;;;;4.10;2.20;;;;;;;23.20;70.61;99198.28;5088866;28;20028;-79
2023/06/26 00:35:55;;;;;;;4.95;2.60;;;;;;;23.40;70.56;99215.63;5092907;28;20031;-79
2023/06/26 00:38:21;;;;;;;6.10;1.52;;;;;;;23.39;70.65;99203.16;5089902;28;20023;-81
2023/06/26 00:40:46;;;;;;;4.35;2.20;;;;;;;23.62;70.01;99208.59;5086890;28;20020;-81
2023/06/26 00:43:12;;;;;;;6.25;3.15;;;;;;;23.24;70.70;99199.78;5091485;28;20101;-81
2023/06/26 00:45:37;;;;;;;4.75;2.03;;;;;;;23.06;71.38;99193.91;5091433;28;21755;-81
2023/06/26 00:48:03;;;;;;;4.68;2.47;;;;;;;23.32;71.34;99226.13;5085756;28;20036;-80
2023/06/26 00:50:29;;;;;;;3.38;1.65;;;;;;;23.24;70.89;99205.16;5086123;28;20032;-82
2023/06/26 00:53:00;;;;;;;5.00;2.75;;;;;;;23.27;71.04;99191.47;5092576;28;20027;-81
2023/06/26 00:55:26;;;;;;;4.45;2.92;;;;;;;23.41;70.63;99214.66;5090423;28;20120;-82
2023/06/26 00:57:51;;;;;;;4.55;1.80;;;;;;;23.39;71.54;99214.75;5087780;28;20024;-82
2023/06/26 01:00:17;;;;;;;4.13;2.35;;;;;;;23.36;71.77;99211.47;5092456;28;20032;-81
2023/06/26 01:02:43;;;;;;;4.78;2.78;;;;;;;23.42;71.24;99202.91;5087877;28;20028;-81
2023/06/26 01:05:12;;;;;;;10.40;3.13;;;;;;;23.38;71.70;99206.81;5091435;28;20442;-80
2023/06/26 01:07:39;;;;;;;5.50;3.00;;;;;;;23.37;71.99;99213.16;5089250;28;20055;-81
2023/06/26 01:10:06;;;;;;;3.75;2.33;;;;;;;23.25;72.09;99217.66;5092601;28;20019;-80
2023/06/26 01:12:33;;;;;;;3.90;3.17;;;;;;;23.28;71.97;99211.16;5073315;28;20088;-79
2023/06/26 01:15:00;;;;;;;4.63;2.35;;;;;;;23.18;71.78;99206.47;5092916;28;20035;-79
2023/06/26 01:17:31;;;;;;;4.30;2.80;;;;;;;23.23;72.20;99216.88;5094385;28;20031;-80
2023/06/26 01:20:00;;;;;;;3.35;1.83;;;;;;;23.07;72.25;99188.41;5093726;28;20066;-80
2023/06/26 01:23:05;;;;;;;7.13;2.45;;;;;;;23.27;72.08;99209.47;5090460;28;20032;-80
2023/06/26 01:25:52;;;;;;;10.07;4.13;;;;;;;22.88;73.24;99213.13;5075635;28;20047;-81
2023/06/26 01:28:19;;;;;;;4.53;3.03;;;;;;;23.09;73.00;99204.47;5096155;28;20050;-80
2023/06/26 01:30:46;;;;;;;4.75;2.50;;;;;;;23.07;72.77;99191.09;5094017;28;20035;-80
2023/06/26 01:33:13;;;;;;;5.18;2.22;;;;;;;23.23;72.53;99201.63;5091947;28;20048;-80
2023/06/26 01:35:39;;;;;;;8.40;2.75;;;;;;;23.20;72.37;99195.59;5086888;28;20400;-81
2023/06/26 01:38:20;;;;;;;4.38;2.25;;;;;;;22.97;73.23;99183.84;5093292;28;20123;-81
2023/06/26 01:40:46;;;;;;;6.45;3.08;;;;;;;22.76;73.75;99171.03;5093968;28;20040;-80
2023/06/26 01:43:49;;;;;;;4.57;2.60;;;;;;;22.84;74.42;99197.34;5094636;28;20059;-80
2023/06/26 01:46:55;;;;;;;4.82;2.92;;;;;;;22.86;74.43;99187.31;5094744;28;20088;-79
2023/06/26 01:49:39;;;;;;;4.85;2.92;;;;;;;22.97;73.89;99194.59;5024301;28;20046;-80
2023/06/26 01:52:25;;;;;;;4.43;2.10;;;;;;;22.64;74.49;99162.03;5003986;28;21567;-80
2023/06/26 01:55:16;;;;;;;6.38;3.03;;;;;;;22.97;73.87;99182.03;5023253;28;21880;-79
2023/06/26 01:57:43;;;;;;;2.38;2.00;;;;;;;22.67;74.56;99175.25;5016910;28;20780;-79
2023/06/26 02:00:10;;;;;;;8.40;3.47;;;;;;;22.59;74.92;99150.75;5022513;28;20045;-80
2023/06/26 02:02:37;;;;;;;6.57;3.20;;;;;;;22.74;74.72;99188.22;4999065;28;20038;-80
2023/06/26 02:05:02;;;;;;;4.03;2.55;;;;;;;22.75;74.83;99182.75;5023987;28;20037;-79
2023/06/26 02:07:28;;;;;;;3.90;3.13;;;;;;;22.69;74.95;99192.13;5017665;28;20805;-80
2023/06/26 02:09:54;;;;;;;6.00;2.63;;;;;;;22.43;75.12;99145.66;5020977;28;20045;-80
2023/06/26 02:12:19;;;;;;;3.58;2.63;;;;;;;22.62;75.27;99187.31;5022245;28;20100;-79
2023/06/26 02:14:45;;;;;;;6.28;2.80;;;;;;;22.69;75.31;99183.19;5022624;28;20029;-81
2023/06/26 02:17:10;;;;;;;3.28;2.35;;;;;;;22.59;75.74;99184.84;5022168;28;20804;-79
2023/06/26 02:19:36;;;;;;;6.03;3.35;;;;;;;22.45;75.61;99175.97;5022368;28;20055;-79
2023/06/26 02:22:01;;;;;;;8.82;3.45;;;;;;;22.69;75.54;99202.00;5019559;28;20038;-79
2023/06/26 02:24:29;;;;;;;6.15;2.90;;;;;;;22.57;75.19;99184.09;5020189;28;20041;-79
2023/06/26 02:26:57;;;;;;;4.18;2.35;;;;;;;22.53;75.78;99170.88;5085643;28;20039;-79
2023/06/26 02:29:22;;;;;;;6.18;4.00;;;;;;;22.69;75.88;99193.94;5091310;28;20023;-79
2023/06/26 02:31:48;;;;;;;5.10;3.08;;;;;;;22.71;75.52;99203.63;5096619;28;20035;-80
2023/06/26 02:34:14;;;;;;;4.68;2.95;;;;;;;22.64;76.42;99202.34;5101250;28;20031;-80
2023/06/26 02:36:39;;;;;;;4.32;3.20;;;;;;;22.41;76.74;99177.13;5095271;28;20096;-79
2023/06/26 02:39:05;;;;;;;5.43;3.58;;;;;;;22.43;76.68;99195.84;5095052;28;20032;-79
2023/06/26 02:41:31;;;;;;;5.13;2.60;;;;;;;22.27;77.00;99177.25;5097053;28;20028;-79
2023/06/26 02:43:56;;;;;;;5.97;2.55;;;;;;;22.39;76.76;99189.00;5091621;28;20044;-79
2023/06/26 02:46:22;;;;;;;4.07;2.35;;;;;;;22.18;77.55;99178.75;5095634;28;20035;-79
2023/06/26 02:48:47;;;;;;;6.40;4.13;;;;;;;22.49;76.89;99195.41;5094236;28;20382;-79
2023/06/26 02:51:13;;;;;;;8.95;3.78;;;;;;;22.43;76.21;99177.91;5093012;28;20035;-79
2023/06/26 02:53:38;;;;;;;8.80;3.83;;;;;;;22.41;76.69;99179.81;5092690;28;20032;-79
2023/06/26 02:56:04;;;;;;;14.48;4.10;;;;;;;22.43;77.18;99191.34;5091123;28;20637;-79
2023/06/26 02:58:29;;;;;;;4.05;2.42;;;;;;;22.52;77.02;99197.88;5093320;28;20127;-79
2023/06/26 03:00:56;;;;;;;7.43;4.03;;;;;;;22.49;76.43;99182.84;5097290;28;20027;-79
2023/06/26 03:03:21;;;;;;;6.38;3.95;;;;;;;22.78;75.49;99200.50;5097316;28;20093;-79
2023/06/26 03:05:47;;;;;;;17.75;3.08;;;;;;;22.75;75.07;99187.28;5101672;28;20028;-80
2023/06/26 03:08:12;;;;;;;10.63;3.05;;;;;;;22.71;75.14;99189.34;5098237;27;20039;-80
2023/06/26 03:10:38;;;;;;;6.15;2.90;;;;;;;22.63;75.29;99187.22;5097135;28;20043;-80
2023/06/26 03:13:03;;;;;;;8.02;4.05;;;;;;;22.81;74.79;99181.44;5094166;28;20647;-80
2023/06/26 03:15:29;;;;;;;6.57;2.95;;;;;;;22.58;75.53;99167.84;5094193;28;20028;-80
2023/06/26 03:17:54;;;;;;;5.43;3.30;;;;;;;22.81;75.08;99190.34;5092441;28;22040;-79
2023/06/26 03:20:20;;;;;;;4.82;3.17;;;;;;;23.01;74.89;99207.69;5073510;28;20031;-79
2023/06/26 03:22:45;;;;;;;6.57;3.65;;;;;;;22.95;75.21;99200.09;5091964;27;20518;-79
2023/06/26 03:25:10;;;;;;;5.15;3.40;;;;;;;22.95;75.12;99208.16;5090473;28;20023;-79
2023/06/26 03:27:36;;;;;;;5.93;3.08;;;;;;;22.87;75.37;99199.81;5074474;28;20043;-79
2023/06/26 03:30:01;;;;;;;6.68;4.45;;;;;;;22.86;75.29;99190.91;5093521;28;20020;-79
2023/06/26 03:32:27;;;;;;;6.18;4.50;;;;;;;22.76;75.58;99205.13;5091059;28;20107;-80
2023/06/26 03:34:56;;;;;;;5.00;2.85;;;;;;;23.09;75.35;99217.06;5095518;28;20101;-81
2023/06/26 03:37:21;;;;;;;7.68;4.05;;;;;;;22.95;74.23;99175.03;5091404;28;21179;-81
2023/06/26 03:39:47;;;;;;;7.40;4.20;;;;;;;23.11;75.04;99223.19;5091887;28;20035;-82
2023/06/26 03:42:12;;;;;;;5.63;3.67;;;;;;;23.04;75.21;99201.25;5092162;28;20020;-83
2023/06/26 03:44:38;;;;;;;5.47;3.08;;;;;;;23.05;75.72;99209.19;5091071;28;20054;-84
2023/06/26 03:47:04;;;;;;;5.97;3.85;;;;;;;22.93;76.22;99198.50;5075225;28;20674;-82
2023/06/26 03:49:29;;;;;;;4.65;3.00;;;;;;;23.11;75.41;99212.44;5094990;28;20028;-81
2023/06/26 03:51:55;;;;;;;7.90;3.90;;;;;;;22.98;75.02;99183.72;5090164;28;20417;-83
2023/06/26 03:54:20;;;;;;;3.65;2.05;;;;;;;22.96;74.90;99214.41;5096928;28;20031;-83
2023/06/26 03:56:47;;;;;;;5.88;4.13;;;;;;;22.67;75.93;99169.00;5090840;28;20027;-82
2023/06/26 03:59:12;;;;;;;7.65;3.95;;;;;;;22.52;76.19;99147.69;5096222;28;20603;-83
2023/06/26 04:01:38;;;;;;;8.98;3.25;;;;;;;22.99;75.33;99209.66;5093261;28;20111;-82
2023/06/26 04:04:03;;;;;;;9.15;4.57;;;;;;;22.75;75.81;99168.44;5095822;28;20084;-83
2023/06/26 04:06:31;;;;;;;7.65;3.13;;;;;;;22.95;76.17;99215.38;5093856;28;20028;-82
2023/06/26 04:08:57;;;;;;;6.95;3.88;;;;;;;23.14;74.84;99205.00;5092534;27;20432;-83
2023/06/26 04:11:22;;;;;;;6.32;3.40;;;;;;;23.37;73.95;99202.41;5092537;28;20023;-83
2023/06/26 04:13:48;;;;;;;7.18;5.13;;;;;;;23.41;72.98;99191.28;5094043;28;20093;-82
2023/06/26 04:16:13;;;;;;;7.50;3.80;;;;;;;23.47;72.96;99191.81;5098160;28;20031;-82
2023/06/26 04:18:39;;;;;;;5.78;3.20;;;;;;;23.67;72.17;99206.44;5094511;28;20028;-82
2023/06/26 04:21:07;;;;;;;5.55;2.80;;;;;;;23.76;72.09;99190.41;5091463;28;20046;-83
2023/06/26 04:23:33;;;;;;;5.32;3.30;;;;;;;24.02;72.28;99214.47;5089226;28;20027;-82
2023/06/26 04:25:58;;;;;;;7.18;3.10;;;;;;;23.98;72.32;99201.38;5090434;27;20028;-84
2023/06/26 04:28:24;;;;;;;4.97;3.05;;;;;;;24.14;71.64;99193.78;5096764;28;20030;-83
2023/06/26 04:30:50;;;;;;;6.72;3.50;;;;;;;24.30;71.02;99198.81;5093835;28;20024;-82
2023/06/26 04:33:15;;;;;;;5.97;3.22;;;;;;;24.44;70.17;99187.78;5096136;28;20089;-82
2023/06/26 04:35:41;;;;;;;5.28;3.28;;;;;;;24.65;69.38;99184.34;5093712;28;20032;-82
2023/06/26 04:38:07;;;;;;;7.00;4.53;;;;;;;24.69;68.54;99188.50;5089676;28;20051;-83
2023/06/26 04:40:32;;;;;;;7.95;3.55;;;;;;;25.09;68.33;99206.81;5092965;28;20123;-83
2023/06/26 04:42:57;;;;;;;4.53;2.85;;;;;;;24.98;67.58;99201.47;5091355;28;20053;-84
2023/06/26 04:45:23;;;;;;;5.07;3.20;;;;;;;24.99;69.36;99181.56;5093102;28;20493;-83
2023/06/26 04:47:48;;;;;;;7.75;3.75;;;;;;;25.19;67.76;99186.16;5088949;28;20039;-83
2023/06/26 04:50:14;;;;;;;5.65;3.67;;;;;;;25.28;66.59;99189.06;5089467;28;20027;-83
2023/06/26 04:52:39;;;;;;;6.38;3.45;;;;;;;25.22;67.30;99209.31;5089658;28;20031;-82
2023/06/26 04:55:05;;;;;;;5.82;3.83;;;;;;;25.35;66.77;99218.16;5093713;28;20087;-83
2023/06/26 04:57:30;;;;;;;8.40;5.20;;;;;;;25.12;67.45;99213.78;5090890;28;20185;-82
2023/06/26 04:59:56;;;;;;;11.57;5.10;;;;;;;24.93;66.99;99209.03;5090024;28;20481;-82
2023/06/26 05:02:21;;;;;;;6.13;3.75;;;;;;;24.71;67.32;99194.63;5090852;28;20031;-83
2023/06/26 05:04:48;;;;;;;6.70;3.67;;;;;;;24.70;67.46;99205.53;5093950;28;20491;-82
2023/06/26 05:07:13;;;;;;;7.25;3.72;;;;;;;24.93;67.17;99222.53;5093348;28;20039;-83
2023/06/26 05:09:39;;;;;;;8.02;4.18;;;;;;;25.10;66.37;99213.94;5086928;28;20460;-82
2023/06/26 05:12:05;;;;;;;8.02;3.85;;;;;;;25.36;66.94;99260.38;5090658;28;20055;-83
2023/06/26 05:14:30;;;;;;;6.75;4.03;;;;;;;25.30;65.16;99244.69;5098078;27;20031;-83
2023/06/26 05:16:55;;;;;;;11.18;4.30;;;;;;;25.07;66.18;99248.38;5102902;28;20055;-83
2023/06/26 05:19:21;;;;;;;9.30;4.13;;;;;;;25.03;65.14;99232.44;5099654;28;20031;-83
2023/06/26 05:21:48;;;;;;;5.78;3.30;;;;;;;24.80;66.49;99214.59;5095281;28;20080;-83
2023/06/26 05:24:15;;;;;;;8.35;3.80;;;;;;;25.21;66.03;99240.00;5100074;28;20032;-83
2023/06/26 05:26:41;;;;;;;8.57;4.18;;;;;;;25.25;64.42;99235.22;5098408;28;20040;-82
2023/06/26 05:29:07;;;;;;;16.15;3.90;;;;;;;25.28;64.92;99243.91;5098009;28;20386;-82
2023/06/26 05:31:35;;;;;;;5.38;2.92;;;;;;;24.93;63.83;99247.69;5098358;28;20030;-82
2023/06/26 05:34:03;;;;;;;3.97;2.88;;;;;;;24.77;63.59;99217.56;5096951;28;20028;-83
2023/06/26 05:36:32;;;;;;;4.85;3.05;;;;;;;25.17;64.03;99249.34;5092414;28;20027;-87
2023/06/26 05:38:58;;;;;;;6.80;3.72;;;;;;;25.38;63.81;99234.09;5093675;28;20058;-87
2023/06/26 05:41:24;;;;;;;6.25;3.83;;;;;;;25.43;63.82;99228.31;5092487;28;20111;-87
2023/06/26 05:43:49;;;;;;;6.00;3.30;;;;;;;25.45;61.80;99231.72;5092257;28;20040;-86
2023/06/26 05:46:15;;;;;;;5.43;3.03;;;;;;;25.76;61.53;99261.53;5092018;28;20031;-85
2023/06/26 05:48:41;;;;;;;5.93;3.10;;;;;;;25.85;62.57;99232.88;5071697;28;20414;-86
2023/06/26 05:51:07;;;;;;;8.13;4.18;;;;;;;25.52;60.97;99200.53;5093431;28;20035;-86
2023/06/26 05:53:33;;;;;;;11.80;3.92;;;;;;;25.62;61.05;99224.03;5084848;28;20027;-85
2023/06/26 05:55:59;;;;;;;5.57;3.70;;;;;;;25.41;61.53;99235.69;5095230;28;20089;-86
2023/06/26 05:58:29;;;;;;;7.13;3.45;;;;;;;25.69;62.38;99254.94;5096960;28;20028;-86
2023/06/26 06:00:55;;;;;;;9.20;3.05;;;;;;;25.56;62.94;99255.13;5098246;28;20027;-87
2023/06/26 06:03:21;;;;;;;7.90;4.90;;;;;;;25.52;61.58;99253.69;5074549;28;20120;-86
2023/06/26 06:05:47;;;;;;;5.85;3.20;;;;;;;25.47;61.15;99269.38;5096904;28;20016;-86
2023/06/26 06:08:12;;;;;;;7.72;3.55;;;;;;;25.65;62.49;99259.72;5094800;28;20069;-86
2023/06/26 06:10:38;;;;;;;4.30;2.67;;;;;;;25.60;61.19;99255.72;5096001;28;20024;-86
2023/06/26 06:13:03;;;;;;;6.20;3.15;;;;;;;25.59;60.19;99262.09;5099147;28;20020;-85
2023/06/26 06:15:29;;;;;;;5.70;3.40;;;;;;;25.86;60.31;99240.00;5093310;28;20482;-87
2023/06/26 06:17:54;;;;;;;5.78;3.53;;;;;;;25.82;61.80;99238.53;5096420;27;20032;-86
2023/06/26 06:20:20;;;;;;;4.30;2.40;;;;;;;25.75;60.30;99243.63;5093763;28;20724;-88
2023/06/26 06:22:45;;;;;;;5.07;2.58;;;;;;;25.29;61.40;99237.56;5092141;28;20020;-89
2023/06/26 06:25:11;;;;;;;4.20;2.40;;;;;;;25.12;61.12;99241.63;5093569;28;20020;-86
2023/06/26 06:27:36;;;;;;;8.80;3.47;;;;;;;25.35;61.62;99244.28;5097267;28;20500;-87
2023/06/26 06:30:02;;;;;;;5.78;2.75;;;;;;;25.30;60.15;99254.59;5097580;28;20019;-86
2023/06/26 06:32:28;;;;;;;6.07;2.83;;;;;;;25.35;60.21;99247.84;5096938;28;20146;-88
2023/06/26 06:34:53;;;;;;;3.63;2.53;;;;;;;25.47;60.36;99272.09;5094976;28;20107;-88
2023/06/26 06:37:19;;;;;;;6.70;2.83;;;;;;;25.02;61.27;99240.66;5092679;28;20150;-87
2023/06/26 06:39:44;;;;;;;4.22;2.67;;;;;;;25.15;60.72;99276.44;5095532;28;20024;-89
2023/06/26 06:42:10;;;;;;;6.80;3.40;;;;;;;25.12;61.71;99265.91;5079146;28;20023;-87
2023/06/26 06:44:35;;;;;;;4.57;3.05;;;;;;;25.12;61.64;99238.94;5091710;28;20062;-88
2023/06/26 06:47:01;;;;;;;5.63;3.17;;;;;;;25.14;61.04;99250.44;5094600;28;20031;-85
2023/06/26 06:49:26;;;;;;;6.18;3.53;;;;;;;25.25;62.40;99259.50;5095401;28;20024;-85
2023/06/26 06:51:52;;;;;;;5.18;2.60;;;;;;;25.25;62.63;99248.72;5083713;28;20032;-87
2023/06/26 06:54:17;;;;;;;6.88;3.95;;;;;;;25.23;61.68;99223.69;5094050;28;20104;-87
2023/06/26 06:56:43;;;;;;;6.57;3.50;;;;;;;25.58;60.72;99252.28;5101384;28;20051;-87
2023/06/26 06:59:08;;;;;;;5.60;2.80;;;;;;;25.77;60.98;99248.91;5094069;28;20036;-88
2023/06/26 07:01:34;;;;;;;4.80;3.55;;;;;;;25.50;61.99;99264.59;5104671;28;20032;-91
2023/06/26 07:03:59;;;;;;;7.05;3.83;;;;;;;25.74;61.26;99233.78;5094782;27;20456;-88
2023/06/26 07:06:25;;;;;;;7.30;3.60;;;;;;;25.89;60.42;99234.34;5107693;28;20474;-87
2023/06/26 07:08:51;;;;;;;5.10;3.25;;;;;;;26.41;60.59;99264.94;5097169;28;20036;-87
2023/06/26 07:11:16;;;;;;;4.35;2.70;;;;;;;26.36;62.37;99229.34;5080196;28;20067;-91
2023/06/26 07:13:42;;;;;;;6.53;3.13;;;;;;;27.18;60.08;99281.59;5102868;28;20023;-94
2023/06/26 07:16:11;;;;;;;4.95;3.28;;;;;;;27.09;56.74;99220.19;5094007;28;20071;-93
2023/06/26 07:18:37;;;;;;;4.20;2.50;;;;;;;27.48;59.97;99275.28;5090896;27;20031;-94
2023/06/26 07:21:03;;;;;;;12.43;3.45;;;;;;;27.56;58.55;99222.22;5093765;28;20036;-91
2023/06/26 07:23:30;;;;;;;6.03;2.50;;;;;;;28.19;54.89;99229.84;5084123;27;20035;-92
2023/06/26 07:25:56;;;;;;;6.88;3.22;;;;;;;28.00;53.59;99212.63;5101522;27;20509;-94
2023/06/26 07:28:21;;;;;;;4.75;2.60;;;;;;;28.54;52.96;99203.88;5081989;28;20075;-93
2023/06/26 07:30:48;;;;;;;10.43;2.65;;;;;;;28.50;51.37;99202.47;5075522;28;20063;-93
2023/06/26 07:33:14;;;;;;;4.18;2.63;;;;;;;28.70;51.46;99241.25;5112179;27;20039;-92
2023/06/26 07:35:40;;;;;;;5.25;3.55;;;;;;;28.48;54.07;99193.63;5083916;28;20031;-88
2023/06/26 07:38:05;;;;;;;3.20;2.03;;;;;;;28.72;50.50;99202.09;5108581;27;20032;-87
2023/06/26 07:40:31;;;;;;;3.63;2.60;;;;;;;29.54;50.39;99204.81;5099889;28;20382;-86
2023/06/26 07:42:58;;;;;;;5.38;2.40;;;;;;;30.14;49.80;99230.44;5102125;28;20031;-86
2023/06/26 07:45:23;;;;;;;5.90;1.90;;;;;;;29.57;46.08;99173.78;5081832;28;20044;-85
2023/06/26 07:47:49;;;;;;;2.90;2.30;;;;;;;30.15;46.74;99199.50;5076711;28;20039;-86
2023/06/26 07:50:19;;;;;;;6.53;2.95;;;;;;;29.78;46.82;99233.19;5076034;28;20044;-87
2023/06/26 07:52:45;;;;;;;3.35;1.92;;;;;;;29.87;43.83;99212.41;5088452;28;20021;-91
2023/06/26 07:55:10;;;;;;;4.35;1.67;;;;;;;30.14;43.72;99238.59;5078711;28;20020;-95
2023/06/26 07:57:36;;;;;;;3.55;1.98;;;;;;;30.21;42.32;99226.03;5088117;28;20591;-95
2023/06/26 08:00:02;;;;;;;5.60;2.40;;;;;;;29.89;43.24;99189.50;5090484;28;20028;-92
2023/06/26 08:02:28;;;;;;;3.20;2.00;;;;;;;29.91;42.57;99213.81;5084342;28;20370;-92
2023/06/26 08:04:54;;;;;;;3.33;1.73;;;;;;;30.25;44.37;99245.63;5086066;28;20020;-92
2023/06/26 08:07:19;;;;;;;3.25;1.83;;;;;;;29.95;44.14;99218.75;5083678;28;20035;-95
2023/06/26 08:09:45;;;;;;;2.80;1.75;;;;;;;30.44;44.91;99207.34;5079264;28;20041;-95
2023/06/26 08:12:10;;;;;;;3.28;2.38;;;;;;;30.77;42.30;99245.59;5083663;28;20032;-96
2023/06/26 08:14:36;;;;;;;3.47;2.10;;;;;;;30.58;42.51;99205.88;5085938;28;20060;-95
2023/06/26 08:17:01;;;;;;;4.28;2.35;;;;;;;31.54;40.18;99222.81;5079466;28;20417;-94
2023/06/26 08:19:27;;;;;;;3.17;1.85;;;;;;;31.11;41.03;99209.31;5086962;28;20080;-90
2023/06/26 08:21:52;;;;;;;4.53;2.78;;;;;;;31.57;45.45;99211.56;5086520;28;20478;-92
2023/06/26 08:24:18;;;;;;;3.88;2.10;;;;;;;31.85;38.47;99233.88;5075536;28;20028;-93
2023/06/26 08:26:46;;;;;;;4.82;2.22;;;;;;;31.52;42.03;99217.50;5076954;28;20060;-94
2023/06/26 08:29:11;;;;;;;6.78;1.83;;;;;;;31.79;42.45;99196.41;5073392;28;20106;-94
2023/06/26 08:31:38;;;;;;;4.22;2.60;;;;;;;31.59;42.92;99187.75;5078497;28;20482;-94
2023/06/26 08:34:05;;;;;;;3.85;2.03;;;;;;;31.52;40.76;99203.88;5085352;28;20446;-96
2023/06/26 08:36:31;;;;;;;4.90;2.40;;;;;;;31.75;42.89;99214.13;5080245;28;20032;-96
2023/06/26 08:38:57;;;;;;;3.92;2.25;;;;;;;31.67;40.31;99186.88;5072011;28;20036;-89
2023/06/26 08:41:23;;;;;;;4.50;2.00;;;;;;;31.64;40.65;99187.22;5078707;28;20134;-95
2023/06/26 08:43:50;;;;;;;4.65;2.83;;;;;;;30.75;39.53;99201.34;5074356;28;20115;-96
2023/06/26 08:46:16;;;;;;;3.25;2.08;;;;;;;30.65;42.49;99225.97;5090301;28;20093;-93
2023/06/26 08:48:55;;;;;;;4.68;2.40;;;;;;;30.46;43.72;99216.22;5069332;28;20036;-93
2023/06/26 08:51:28;;;;;;;2.75;1.55;;;;;;;29.19;46.34;99189.38;5085963;28;20023;-90
2023/06/26 08:53:59;;;;;;;2.35;1.42;;;;;;;28.91;48.15;99198.41;5074656;28;20020;-93
2023/06/26 08:56:36;;;;;;;6.32;3.40;;;;;;;28.85;51.33;99179.19;5084401;28;20032;-92
2023/06/26 08:59:01;;;;;;;2.85;1.45;;;;;;;28.71;51.34;99241.09;5077397;28;20459;-88
2023/06/26 09:01:27;;;;;;;5.95;3.15;;;;;;;28.19;54.17;99236.16;5074539;28;20083;-89
2023/06/26 09:03:53;;;;;;;5.68;2.72;;;;;;;28.00;55.47;99242.44;5071824;28;20039;-84
2023/06/26 09:06:19;;;;;;;4.70;2.53;;;;;;;27.86;56.85;99251.84;5069379;28;20473;-86
2023/06/26 09:08:44;;;;;;;3.72;1.80;;;;;;;27.51;56.47;99211.81;5066205;28;20146;-86
2023/06/26 09:11:10;;;;;;;3.17;2.03;;;;;;;27.57;55.17;99243.75;5071320;28;20025;-86
2023/06/26 09:13:35;;;;;;;4.40;2.80;;;;;;;27.43;57.32;99208.97;5071570;28;20565;-88
2023/06/26 09:16:08;;;;;;;3.97;2.25;;;;;;;27.81;56.42;99202.66;5067727;28;20103;-89
2023/06/26 09:18:34;;;;;;;10.32;2.58;;;;;;;27.96;58.69;99241.06;5067766;28;20020;-90
2023/06/26 09:20:59;;;;;;;5.00;2.30;;;;;;;28.38;58.28;99220.81;5073851;28;20032;-88
2023/06/26 09:23:26;;;;;;;7.50;2.95;;;;;;;29.04;57.75;99203.50;5068915;28;20039;-86
2023/06/26 09:25:51;;;;;;;3.80;2.25;;;;;;;29.91;55.79;99214.66;5066354;28;20478;-86
2023/06/26 09:28:17;;;;;;;7.18;2.85;;;;;;;30.61;49.69;99216.41;5065618;28;20032;-87
2023/06/26 09:30:48;;;;;;;5.30;2.55;;;;;;;30.59;49.49;99184.97;5065639;28;20037;-87
2023/06/26 09:33:15;;;;;;;3.15;1.65;;;;;;;30.73;46.31;99225.16;5068878;28;20037;-87
2023/06/26 09:35:41;;;;;;;4.47;2.55;;;;;;;31.12;46.60;99183.75;5066213;28;20119;-89
2023/06/26 09:38:07;;;;;;;2.58;1.60;;;;;;;30.55;42.32;99169.97;5067135;28;20585;-86
2023/06/26 09:40:34;;;;;;;4.43;2.25;;;;;;;31.31;40.04;99239.81;5066419;28;20037;-85
2023/06/26 09:43:12;;;;;;;4.97;1.58;;;;;;;31.98;40.82;99200.66;5069106;28;20749;-86
2023/06/26 09:45:40;;;;;;;7.80;2.20;;;;;;;32.25;39.10;99184.91;5069753;28;21949;-86
2023/06/26 09:48:08;;;;;;;2.90;1.95;;;;;;;32.50;37.13;99147.47;5084529;28;20115;-86
2023/06/26 09:50:34;;;;;;;3.28;2.05;;;;;;;32.39;40.29;99188.78;5087692;28;20016;-86
2023/06/26 09:53:15;;;;;;;5.75;3.08;;;;;;;31.29;39.14;99187.34;5084679;28;20105;-85
2023/06/26 09:55:44;;;;;;;3.40;1.77;;;;;;;31.57;38.82;99163.41;5087827;28;20020;-85
2023/06/26 09:58:15;;;;;;;3.95;1.90;;;;;;;31.57;40.40;99184.31;5084095;28;20109;-86
2023/06/26 10:00:43;;;;;;;8.23;2.92;;;;;;;30.34;47.60;99149.47;5077126;28;20071;-86
2023/06/26 10:03:10;;;;;;;4.80;2.55;;;;;;;29.56;51.41;99191.09;5093432;28;20810;-87
2023/06/26 10:05:35;;;;;;;5.95;3.15;;;;;;;28.86;59.66;99225.16;5094276;28;20175;-86
2023/06/26 10:08:04;;;;;;;6.13;2.65;;;;;;;28.47;59.27;99225.34;5091169;28;20049;-83
2023/06/26 10:10:39;;;;;;;2.10;1.38;;;;;;;27.29;56.46;99212.94;5089702;28;20028;-85
2023/06/26 10:13:23;;;;;;;4.93;2.40;;;;;;;26.77;63.34;99177.97;5092524;28;20103;-86
2023/06/26 10:15:57;;;;;;;11.13;2.38;;;;;;;27.03;64.67;99164.75;5088083;28;20043;-86
2023/06/26 10:18:25;;;;;;;3.53;1.98;;;;;;;26.87;67.29;99195.09;5093504;28;20058;-86
2023/06/26 10:21:15;;;;;;;6.97;1.80;;;;;;;27.01;68.23;99230.88;5088924;28;20108;-85
2023/06/26 10:23:44;;;;;;;3.53;2.00;;;;;;;27.18;68.97;99259.94;5095924;28;20026;-85
2023/06/26 10:26:11;;;;;;;3.53;2.55;;;;;;;26.74;65.65;99235.06;5093627;28;20027;-85
2023/06/26 10:28:38;;;;;;;3.33;2.08;;;;;;;27.26;66.61;99264.66;5069075;28;20059;-85
2023/06/26 10:31:06;;;;;;;3.60;2.05;;;;;;;27.12;67.00;99200.97;5092579;28;20497;-84
2023/06/26 10:33:33;;;;;;;4.22;2.42;;;;;;;27.62;66.16;99246.91;5074088;28;20089;-84
2023/06/26 10:36:13;;;;;;;3.53;2.00;;;;;;;27.41;67.18;99211.00;5094744;28;20024;-85
2023/06/26 10:38:54;;;;;;;5.20;2.63;;;;;;;27.89;67.92;99231.75;5086977;28;20532;-85
2023/06/26 10:41:22;;;;;;;5.30;2.10;;;;;;;28.19;63.12;99228.00;5090546;28;20028;-84
2023/06/26 10:44:08;;;;;;;3.72;2.30;;;;;;;28.31;61.47;99203.41;5095407;28;20040;-84
2023/06/26 10:46:48;;;;;;;3.35;1.73;;;;;;;28.87;60.57;99217.88;5093196;28;20128;-84
2023/06/26 10:49:14;;;;;;;3.88;2.42;;;;;;;29.08;56.28;99210.28;5088865;28;20034;-84
2023/06/26 10:51:48;;;;;;;2.25;1.27;;;;;;;29.54;56.82;99172.22;5097782;28;20110;-84
2023/06/26 10:54:18;;;;;;;4.05;2.08;;;;;;;29.41;57.10;99201.63;5090915;27;20115;-84
2023/06/26 10:56:49;;;;;;;6.07;2.85;;;;;;;28.78;55.22;99184.38;5090097;28;20022;-85
2023/06/26 10:59:19;;;;;;;4.88;2.45;;;;;;;29.00;55.14;99225.66;5075678;28;20035;-85
2023/06/26 11:01:53;;;;;;;3.97;2.40;;;;;;;29.21;57.57;99209.97;5105866;28;20493;-84
2023/06/26 11:04:38;;;;;;;3.58;2.67;;;;;;;29.23;58.69;99207.94;5092005;28;20034;-84
2023/06/26 11:07:16;;;;;;;6.05;2.50;;;;;;;29.00;58.20;99180.34;5096522;28;20135;-84
2023/06/26 11:10:01;;;;;;;4.65;2.72;;;;;;;28.65;58.81;99200.16;5092850;28;20461;-84
2023/06/26 11:12:36;;;;;;;3.22;2.55;;;;;;;28.22;60.91;99208.72;5112233;28;20112;-84
2023/06/26 11:15:02;;;;;;;;;;;;;;;28.51;62.64;99196.03;5106658;27;20134;-83
2023/06/26 11:17:28;;;;;;;4.15;1.85;;;;;;;28.69;58.16;99209.69;5092559;27;20420;-86
2023/06/26 11:19:55;;;;;;;2.55;1.60;;;;;;;28.66;56.19;99175.59;5091278;28;20039;-86
2023/06/26 11:22:22;;;;;;;3.45;2.38;;;;;;;28.83;56.25;99187.47;5090821;28;20111;-84
2023/06/26 11:24:52;;;;;;;5.07;2.33;;;;;;;28.84;55.89;99202.75;5097703;28;20173;-84
2023/06/26 11:27:18;;;;;;;3.78;2.10;;;;;;;29.00;56.56;99183.06;5103805;28;20054;-85
2023/06/26 11:29:48;;;;;;;4.53;1.85;;;;;;;29.26;55.70;99183.19;5090736;28;20490;-84
2023/06/26 11:32:14;;;;;;;4.72;2.00;;;;;;;29.25;54.66;99186.91;5090673;28;20199;-85
2023/06/26 11:34:41;;;;;;;2.88;1.50;;;;;;;29.39;55.43;99206.38;5090475;28;20805;-85
2023/06/26 11:37:07;;;;;;;3.95;2.40;;;;;;;29.53;56.91;99166.94;5091217;28;20017;-85